createdAt,value
2019-04-13T00:00:00.914Z,4.4
2019-04-13T00:10:00.976Z,3.7
2019-04-13T00:15:01.033Z,3.7
2019-04-13T00:20:00.915Z,2.8
2019-04-13T00:25:00.978Z,2.6
2019-04-13T00:30:00.911Z,2.1
2019-04-13T00:35:01.053Z,1.9
2019-04-13T00:40:00.931Z,1.7
2019-04-13T00:45:01.059Z,1.7
2019-04-13T00:50:00.969Z,1.7
2019-04-13T00:55:01.102Z,1.8
2019-04-13T01:00:05.949Z,1.8
2019-04-13T01:05:02.119Z,1.9
2019-04-13T01:15:01.062Z,1.9
2019-04-13T01:20:00.937Z,1.5
2019-04-13T01:25:00.992Z,1.4
2019-04-13T01:30:00.942Z,1.4
2019-04-13T01:45:01.046Z,2.0
2019-04-13T01:55:01.019Z,1.7
2019-04-13T02:00:00.954Z,1.8
2019-04-13T02:10:01.028Z,1.8
2019-04-13T02:15:01.074Z,2.1
2019-04-13T02:20:00.953Z,2.2
2019-04-13T02:25:01.139Z,2.4
2019-04-13T02:30:01.057Z,2.3
2019-04-13T02:35:01.133Z,2.1
2019-04-13T02:45:01.084Z,2.6
2019-04-13T02:55:01.044Z,5.3
2019-04-13T03:00:00.980Z,5.1
2019-04-13T03:05:01.157Z,5.4
2019-04-13T03:10:00.968Z,5.7
2019-04-13T03:15:01.075Z,5.5
2019-04-13T03:20:00.994Z,5.4
2019-04-13T03:30:01.139Z,5.8
2019-04-13T03:35:01.037Z,5.8
2019-04-13T03:40:00.995Z,5.5
2019-04-13T03:45:01.131Z,6.2
2019-04-13T03:50:01.007Z,5.9
2019-04-13T03:55:01.064Z,6.1
2019-04-13T04:00:00.979Z,5.6
2019-04-13T04:05:01.145Z,5.9
2019-04-13T04:10:00.982Z,5.5
2019-04-13T04:15:01.137Z,5.5
2019-04-13T04:20:00.988Z,5.4
2019-04-13T04:25:01.060Z,5.6
2019-04-13T04:30:00.991Z,5.7
2019-04-13T04:35:01.066Z,6.1
2019-04-13T04:45:01.124Z,5.7
2019-04-13T04:50:01.069Z,6.2
2019-04-13T04:55:01.226Z,6.1
2019-04-13T05:00:01.239Z,6.4
2019-04-13T05:05:01.091Z,6.5
2019-04-13T05:10:01.058Z,6.3
2019-04-13T05:15:01.157Z,5.8
2019-04-13T05:20:01.120Z,5.7
2019-04-13T05:25:01.123Z,5.5
2019-04-13T05:30:01.068Z,5.2
2019-04-13T05:35:01.191Z,5.5
2019-04-13T05:40:01.225Z,5.7
2019-04-13T05:45:01.125Z,5.9
2019-04-13T05:50:01.065Z,5.7
2019-04-13T06:00:01.188Z,5.6
2019-04-13T06:10:01.131Z,5.6
2019-04-13T06:15:03.666Z,5.7
2019-04-13T06:20:01.023Z,5.7
2019-04-13T06:25:01.109Z,5.4
2019-04-13T06:30:01.753Z,5.6
2019-04-13T06:35:01.101Z,5.4
2019-04-13T06:45:01.191Z,5.9
2019-04-13T06:50:01.049Z,6.0
2019-04-13T06:55:01.136Z,5.9
2019-04-13T07:00:01.076Z,5.9
2019-04-13T07:05:01.442Z,7.3
2019-04-13T07:10:02.703Z,7.8
2019-04-13T07:15:01.054Z,7.9
2019-04-13T07:20:01.056Z,8.2
2019-04-13T07:25:02.886Z,8.3
2019-04-13T07:30:01.055Z,6.4
2019-04-13T07:35:05.510Z,6.1
2019-04-13T07:40:01.089Z,5.9
2019-04-13T07:45:01.216Z,5.7
2019-04-13T07:50:01.095Z,5.9
2019-04-13T07:55:01.152Z,6.5
2019-04-13T08:00:01.128Z,6.9
2019-04-13T08:05:01.299Z,7.3
2019-04-13T08:10:01.090Z,7.1
2019-04-13T08:15:01.307Z,7.3
2019-04-13T08:20:01.113Z,7.4
2019-04-13T08:25:01.162Z,7.1
2019-04-13T08:30:01.113Z,7.0
2019-04-13T08:35:01.182Z,7.6
2019-04-13T08:40:02.999Z,7.5
2019-04-13T08:45:01.217Z,7.1
2019-04-13T08:50:01.104Z,7.2
2019-04-13T08:55:02.211Z,7.5
2019-04-13T09:00:01.088Z,7.6
2019-04-13T09:05:04.659Z,8.2
2019-04-13T09:10:01.103Z,8.0
2019-04-13T09:15:02.059Z,7.9
2019-04-13T09:20:01.875Z,8.3
2019-04-13T09:25:01.193Z,8.2
2019-04-13T09:30:01.107Z,7.8
2019-04-13T09:35:01.177Z,8.1
2019-04-13T09:40:01.128Z,8.1
2019-04-13T09:45:04.589Z,7.2
2019-04-13T09:50:01.152Z,7.5
2019-04-13T09:55:01.191Z,7.6
2019-04-13T10:00:01.136Z,7.9
2019-04-13T10:10:01.266Z,8.0
2019-04-13T10:15:01.153Z,8.4
2019-04-13T10:20:01.103Z,8.7
2019-04-13T10:25:01.261Z,8.6
2019-04-13T10:30:02.898Z,8.7
2019-04-13T10:35:01.256Z,10.1
2019-04-13T10:40:01.109Z,10.3
2019-04-13T10:45:01.162Z,10.1
2019-04-13T10:50:01.096Z,10.1
2019-04-13T10:55:01.238Z,10.9
2019-04-13T11:00:01.098Z,10.4
2019-04-13T11:05:02.152Z,11.1
2019-04-13T11:10:02.407Z,11.0
2019-04-13T11:15:02.320Z,11.2
2019-04-13T11:20:01.120Z,11.5
2019-04-13T11:25:01.183Z,11.9
2019-04-13T11:30:01.129Z,11.8
2019-04-13T11:35:05.390Z,11.5
2019-04-13T11:40:01.135Z,11.9
2019-04-13T11:45:01.183Z,11.2
2019-04-13T11:50:01.235Z,11.2
2019-04-13T11:55:01.452Z,11.0
2019-04-13T12:00:01.121Z,11.1
2019-04-13T12:05:01.538Z,10.6
2019-04-13T12:10:03.877Z,10.8
2019-04-13T12:15:01.230Z,10.2
2019-04-13T12:20:01.163Z,9.9
2019-04-13T12:25:01.295Z,9.6
2019-04-13T12:30:01.142Z,9.4
2019-04-13T12:35:09.040Z,9.6
2019-04-13T12:45:01.214Z,9.7
2019-04-13T12:50:01.146Z,9.8
2019-04-13T12:55:01.287Z,10.2
2019-04-13T13:00:01.866Z,10.1
2019-04-13T13:05:01.235Z,10.4
2019-04-13T13:10:01.190Z,10.8
2019-04-13T13:15:01.256Z,10.1
2019-04-13T13:20:01.189Z,9.6
2019-04-13T13:25:01.163Z,9.2
2019-04-13T13:30:01.162Z,8.5
2019-04-13T13:35:01.827Z,8.4
2019-04-13T13:40:01.158Z,8.5
2019-04-13T13:45:01.238Z,8.4
2019-04-13T13:50:01.156Z,7.6
2019-04-13T13:55:01.333Z,7.6
2019-04-13T14:00:01.153Z,8.0
2019-04-13T14:05:01.595Z,8.4
2019-04-13T14:10:01.948Z,9.0
2019-04-13T14:15:01.450Z,9.9
2019-04-13T14:25:01.329Z,9.7
2019-04-13T14:30:01.205Z,9.3
2019-04-13T14:35:05.986Z,8.9
2019-04-13T14:40:06.569Z,9.3
2019-04-13T14:45:01.219Z,8.8
2019-04-13T14:50:01.207Z,8.7
2019-04-13T14:55:01.173Z,8.9
2019-04-13T15:00:01.220Z,8.2
2019-04-13T15:05:01.246Z,8.1
2019-04-13T15:10:01.213Z,8.4
2019-04-13T15:15:01.199Z,8.2
2019-04-13T15:20:15.466Z,8.0
2019-04-13T15:25:11.756Z,7.6
2019-04-13T15:30:10.895Z,6.9
2019-04-13T15:35:10.365Z,7.1
2019-04-13T15:45:01.196Z,6.7
2019-04-13T15:50:01.222Z,6.2
2019-04-13T15:55:02.513Z,6.3
2019-04-13T16:00:02.687Z,5.9
2019-04-13T16:05:02.866Z,5.6
2019-04-13T16:10:02.140Z,4.7
2019-04-13T16:15:01.442Z,5.0
2019-04-13T16:20:06.210Z,5.0
2019-04-13T16:25:01.226Z,5.6
2019-04-13T16:30:02.527Z,5.8
2019-04-13T16:35:01.912Z,6.3
2019-04-13T16:40:02.580Z,5.1
2019-04-13T16:45:02.747Z,5.1
2019-04-13T16:50:01.239Z,3.7
2019-04-13T16:55:08.882Z,3.6
2019-04-13T17:00:01.964Z,3.4
2019-04-13T17:05:01.330Z,3.5
2019-04-13T17:10:02.593Z,4.5
2019-04-13T17:15:02.462Z,4.7
2019-04-13T17:20:01.244Z,5.3
2019-04-13T17:25:02.258Z,5.3
2019-04-13T17:30:01.222Z,6.0
2019-04-13T17:40:01.381Z,6.0
2019-04-13T17:45:02.826Z,5.9
2019-04-13T17:50:01.652Z,6.9
2019-04-13T18:00:02.010Z,7.4
2019-04-13T18:05:02.505Z,6.8
2019-04-13T18:10:02.562Z,8.5
2019-04-13T18:15:01.387Z,8.6
2019-04-13T18:20:01.330Z,8.5
2019-04-13T18:25:01.534Z,8.4
2019-04-13T18:30:22.138Z,8.6
2019-04-13T18:35:02.955Z,8.0
2019-04-13T18:40:11.594Z,8.7
2019-04-13T18:45:02.046Z,9.2
2019-04-13T18:55:01.975Z,8.8
2019-04-13T19:00:01.250Z,10.6
2019-04-13T19:05:01.255Z,10.7
2019-04-13T19:10:01.282Z,10.4
2019-04-13T19:15:01.376Z,10.4
2019-04-13T19:20:01.281Z,10.8
2019-04-13T19:25:01.346Z,10.8
2019-04-13T19:30:02.015Z,10.8
2019-04-13T19:35:01.409Z,11.0
2019-04-13T19:45:01.414Z,11.4
2019-04-13T19:50:01.275Z,11.4
2019-04-13T19:55:01.322Z,10.6
2019-04-13T20:00:01.344Z,10.0
2019-04-13T20:05:01.266Z,9.7
2019-04-13T20:10:01.314Z,9.4
2019-04-13T20:15:01.499Z,9.4
2019-04-13T20:20:01.818Z,9.7
2019-04-13T20:25:01.305Z,10.1
2019-04-13T20:30:02.411Z,9.9
2019-04-13T20:35:02.414Z,10.1
2019-04-13T20:40:01.302Z,9.9
2019-04-13T20:45:02.922Z,9.4
2019-04-13T20:50:01.272Z,9.0
2019-04-13T20:55:02.620Z,9.3
2019-04-13T21:00:01.386Z,9.2
2019-04-13T21:05:01.669Z,9.0
2019-04-13T21:10:01.357Z,8.9
2019-04-13T21:15:01.459Z,8.9
2019-04-13T21:20:01.521Z,8.6
2019-04-13T21:25:01.513Z,8.3
2019-04-13T21:30:01.437Z,7.9
2019-04-13T21:35:01.809Z,7.9
2019-04-13T21:40:01.459Z,7.7
2019-04-13T21:45:01.736Z,8.0
2019-04-13T21:50:02.655Z,8.0
2019-04-13T21:55:02.654Z,8.0
2019-04-13T22:00:01.334Z,8.1
2019-04-13T22:05:01.327Z,7.8
2019-04-13T22:10:01.374Z,7.7
2019-04-13T22:15:10.233Z,7.5
2019-04-13T22:20:01.901Z,7.8
2019-04-13T22:25:01.562Z,8.2
2019-04-13T22:30:01.871Z,8.4
2019-04-13T22:35:02.560Z,8.5
2019-04-13T22:40:02.152Z,8.7
2019-04-13T22:45:09.828Z,8.9
2019-04-13T22:50:02.837Z,8.6
2019-04-13T22:55:01.426Z,9.0
2019-04-13T23:00:02.286Z,9.1
2019-04-13T23:05:02.720Z,9.0
2019-04-13T23:10:01.333Z,9.2
2019-04-13T23:15:20.661Z,9.2
2019-04-13T23:20:01.286Z,8.5
2019-04-13T23:25:02.723Z,8.0
2019-04-13T23:30:01.295Z,7.4
2019-04-13T23:35:04.682Z,7.5
2019-04-13T23:45:18.954Z,7.9
2019-04-13T23:55:01.366Z,8.0
